Time;durP1;ratioP1;P1;durP2;ratioP2;P2;SDS_P1;SDS_P2;PMS_P1;PMS_P2;Temp;Humidity;BMP_temperature;BMP_pressure;BME280_temperature;BME280_humidity;BME280_pressure;Samples;Min_cycle;Max_cycle;Signal;HPM_P1;HPM_P2
2021/12/09 00:02:14;;;;;;;12.60;5.50;;;;;;;-4.48;63.69;100509.00;4925252;29;20036;-77
2021/12/09 00:04:41;;;;;;;11.35;5.25;;;;;;;-4.61;63.96;100487.03;4932690;29;20040;-76
2021/12/09 00:07:07;;;;;;;13.35;5.53;;;;;;;-4.66;63.61;100481.66;4923232;29;20048;-76
2021/12/09 00:09:34;;;;;;;10.23;5.30;;;;;;;-4.59;63.71;100478.75;4928825;29;20048;-77
2021/12/09 00:11:59;;;;;;;11.13;5.85;;;;;;;-4.47;63.76;100516.75;4926309;29;20056;-76
2021/12/09 00:14:32;;;;;;;10.30;5.20;;;;;;;-4.50;64.03;100514.00;4912135;29;20534;-76
2021/12/09 00:17:05;;;;;;;11.02;5.35;;;;;;;-4.49;64.09;100519.94;4911074;29;20064;-75
2021/12/09 00:19:31;;;;;;;9.43;4.93;;;;;;;-4.53;63.46;100506.19;4923032;29;20040;-79
2021/12/09 00:21:58;;;;;;;12.98;5.78;;;;;;;-4.61;63.07;100498.09;4918406;29;20040;-79
2021/12/09 00:24:24;;;;;;;14.23;5.78;;;;;;;-4.63;63.42;100496.25;4901971;29;20426;-76
2021/12/09 00:26:50;;;;;;;10.70;5.18;;;;;;;-4.61;63.94;100499.72;4922602;29;20040;-76
2021/12/09 00:29:16;;;;;;;9.15;4.68;;;;;;;-4.59;63.73;100490.53;4917189;29;20044;-75
2021/12/09 00:31:43;;;;;;;13.02;5.30;;;;;;;-4.43;64.13;100494.94;4912225;29;20075;-78
2021/12/09 00:34:09;;;;;;;14.68;5.10;;;;;;;-4.30;64.05;100499.13;4909086;29;20044;-76
2021/12/09 00:36:42;;;;;;;12.52;5.13;;;;;;;-4.44;63.85;100485.56;4906608;29;20037;-75
2021/12/09 00:39:09;;;;;;;10.82;5.35;;;;;;;-4.27;64.19;100500.19;4915628;29;20043;-76
2021/12/09 00:41:36;;;;;;;11.52;5.18;;;;;;;-4.28;63.56;100495.88;4908934;29;20036;-78
2021/12/09 00:44:02;;;;;;;10.98;4.63;;;;;;;-4.42;63.55;100467.09;4914415;29;20052;-78
2021/12/09 00:46:28;;;;;;;10.68;4.63;;;;;;;-4.29;63.76;100480.53;4881583;29;20079;-78
2021/12/09 00:48:54;;;;;;;11.40;5.20;;;;;;;-4.43;63.45;100482.22;4913022;29;20067;-76
2021/12/09 00:51:20;;;;;;;10.60;5.10;;;;;;;-4.35;63.92;100497.94;4913272;29;20079;-76
2021/12/09 00:53:45;;;;;;;9.68;5.13;;;;;;;-4.45;63.93;100482.16;4912949;29;20043;-78
2021/12/09 00:56:13;;;;;;;11.00;5.15;;;;;;;-4.33;63.57;100499.81;4911771;29;20531;-77
2021/12/09 00:58:41;;;;;;;13.27;4.97;;;;;;;-4.43;63.87;100469.53;4908649;29;20074;-76
2021/12/09 01:01:07;;;;;;;10.38;5.35;;;;;;;-4.43;63.60;100460.25;4915979;29;20129;-78
2021/12/09 01:03:35;;;;;;;10.27;5.30;;;;;;;-4.19;63.86;100509.94;4914377;29;20040;-75
2021/12/09 01:06:03;;;;;;;9.30;4.93;;;;;;;-4.21;63.78;100509.88;4912342;29;20629;-75
2021/12/09 01:08:29;;;;;;;8.63;4.88;;;;;;;-4.42;63.72;100495.06;4916045;29;20060;-77
2021/12/09 01:10:55;;;;;;;11.35;5.15;;;;;;;-4.31;63.81;100518.59;4910627;29;20529;-76
2021/12/09 01:13:21;;;;;;;9.98;5.28;;;;;;;-4.31;63.33;100510.97;4911121;29;20051;-76
2021/12/09 01:15:48;;;;;;;11.00;4.75;;;;;;;-4.29;63.80;100513.59;4899666;29;20115;-77
2021/12/09 01:18:23;;;;;;;10.23;5.00;;;;;;;-4.54;64.18;100469.75;4911340;29;20059;-75
2021/12/09 01:33:02;;;;;;;7.82;3.88;;;;;;;-4.99;63.71;100439.00;4688016;30;20310;-77
2021/12/09 01:35:47;;;;;;;10.57;4.32;;;;;;;-5.10;63.46;100422.22;4782729;29;20049;-76
2021/12/09 01:38:18;;;;;;;8.38;4.25;;;;;;;-4.67;64.00;100491.75;4836274;29;20132;-77
2021/12/09 01:40:45;;;;;;;8.23;3.97;;;;;;;-4.55;64.25;100513.72;4905396;29;20071;-78
2021/12/09 01:43:13;;;;;;;11.25;4.20;;;;;;;-4.54;64.31;100517.13;4904412;29;20044;-75
2021/12/09 01:45:40;;;;;;;11.75;5.07;;;;;;;-4.60;64.10;100494.75;4911120;29;20047;-78
2021/12/09 01:48:06;;;;;;;9.23;3.80;;;;;;;-4.74;64.44;100475.22;4909643;29;20183;-77
2021/12/09 01:50:34;;;;;;;12.10;3.83;;;;;;;-4.61;63.93;100503.16;4913016;29;20119;-75
2021/12/09 01:53:02;;;;;;;9.13;4.13;;;;;;;-4.63;64.17;100508.94;4909264;29;20039;-75
2021/12/09 01:55:28;;;;;;;8.55;3.97;;;;;;;-4.63;64.45;100507.25;4911218;29;20134;-76
2021/12/09 01:57:54;;;;;;;10.32;4.05;;;;;;;-4.58;64.55;100521.16;4906348;29;20045;-76
2021/12/09 02:00:25;;;;;;;9.68;3.90;;;;;;;-4.89;64.71;100463.31;4909826;29;20055;-78
2021/12/09 02:02:52;;;;;;;8.88;3.38;;;;;;;-4.61;64.27;100509.88;4921252;29;20044;-79
2021/12/09 02:05:18;;;;;;;9.95;4.10;;;;;;;-4.59;64.44;100511.75;4893716;29;20044;-76
2021/12/09 02:07:44;;;;;;;8.55;4.30;;;;;;;-4.85;62.79;100523.66;4905409;29;21796;-78
2021/12/09 02:10:13;;;;;;;8.88;4.15;;;;;;;-4.90;64.51;100517.41;4906709;29;20074;-77
2021/12/09 02:12:42;;;;;;;;;;;;;;;-4.64;64.77;100528.38;4907810;29;20048;-77
2021/12/09 02:15:09;;;;;;;9.43;3.53;;;;;;;-4.60;64.90;100507.47;4905245;29;19925;-76
2021/12/09 02:17:35;;;;;;;9.25;3.90;;;;;;;-4.43;64.91;100538.13;4911027;29;20051;-76
2021/12/09 02:20:04;;;;;;;8.07;3.75;;;;;;;-4.41;64.62;100536.56;4916565;29;20052;-75
2021/12/09 02:22:31;;;;;;;6.15;3.30;;;;;;;-4.48;64.22;100514.09;4916047;29;20052;-77
2021/12/09 02:24:57;;;;;;;7.22;3.90;;;;;;;-4.46;64.19;100532.84;4908536;29;20043;-74
2021/12/09 02:27:25;;;;;;;7.75;4.15;;;;;;;-4.49;64.38;100530.13;4909035;29;20048;-75
2021/12/09 02:29:54;;;;;;;7.57;3.70;;;;;;;-4.31;64.49;100550.75;4909230;29;20052;-75
2021/12/09 02:32:19;;;;;;;9.18;4.53;;;;;;;-4.29;64.68;100549.16;4909522;29;20059;-76
2021/12/09 02:34:46;;;;;;;9.35;3.95;;;;;;;-4.29;64.89;100552.56;4894954;29;20195;-76
2021/12/09 02:37:13;;;;;;;7.53;3.67;;;;;;;-4.36;64.36;100545.38;4920510;29;20044;-77
2021/12/09 02:39:41;;;;;;;7.97;3.67;;;;;;;-4.40;64.41;100546.81;4893529;29;20079;-79
2021/12/09 02:42:07;;;;;;;7.13;3.28;;;;;;;-4.52;63.92;100542.66;4906484;29;20182;-78
2021/12/09 02:44:33;;;;;;;9.43;3.90;;;;;;;-4.39;64.72;100561.28;4910992;29;20040;-76
2021/12/09 02:46:59;;;;;;;8.85;3.95;;;;;;;-4.45;64.44;100547.31;4906676;29;20044;-77
2021/12/09 02:49:28;;;;;;;6.72;3.55;;;;;;;-4.38;64.42;100541.84;4908751;29;20542;-76
2021/12/09 02:51:54;;;;;;;10.88;3.95;;;;;;;-4.35;65.03;100530.97;4879063;29;20043;-76
2021/12/09 02:54:22;;;;;;;7.70;3.67;;;;;;;-4.26;64.31;100557.84;4907011;29;20160;-77
2021/12/09 02:56:52;;;;;;;8.80;3.80;;;;;;;-4.39;63.82;100550.25;4906645;29;20047;-77
2021/12/09 02:59:19;;;;;;;8.38;3.55;;;;;;;-4.44;63.79;100570.31;4906289;29;20054;-78
2021/12/09 03:01:57;;;;;;;7.78;3.83;;;;;;;-4.54;64.13;100565.41;4910907;29;20044;-76
2021/12/09 03:04:43;;;;;;;9.15;3.88;;;;;;;-4.50;63.75;100579.16;4909273;29;20048;-78
2021/12/09 03:07:16;;;;;;;11.48;3.95;;;;;;;-4.52;64.32;100568.06;4899571;29;20060;-77
2021/12/09 03:09:49;;;;;;;6.18;3.58;;;;;;;-4.56;64.18;100560.22;4910975;29;20048;-77
2021/12/09 03:12:22;;;;;;;9.05;3.92;;;;;;;-4.43;64.38;100584.78;4923010;29;20506;-75
2021/12/09 03:14:48;;;;;;;8.82;3.60;;;;;;;-4.45;63.85;100578.72;4891426;29;20044;-76
2021/12/09 03:17:14;;;;;;;9.45;4.22;;;;;;;-4.64;64.41;100576.63;4894081;29;20459;-75
2021/12/09 03:19:40;;;;;;;10.02;4.00;;;;;;;-4.67;64.30;100551.03;4906648;29;20131;-77
2021/12/09 03:22:06;;;;;;;8.75;3.60;;;;;;;-4.66;62.71;100570.56;4906806;29;20052;-78
2021/12/09 03:24:32;;;;;;;10.70;4.63;;;;;;;-4.85;64.20;100556.69;4892980;29;20044;-78
2021/12/09 03:26:58;;;;;;;7.72;4.10;;;;;;;-4.73;63.75;100565.84;4908307;29;20046;-78
2021/12/09 03:29:27;;;;;;;9.27;3.95;;;;;;;-4.55;64.39;100583.97;4908092;29;20575;-77
2021/12/09 03:31:56;;;;;;;11.25;4.30;;;;;;;-4.64;64.48;100563.94;4909095;29;20059;-78
2021/12/09 03:34:25;;;;;;;7.35;4.10;;;;;;;-4.43;64.30;100601.66;4921148;29;20122;-76
2021/12/09 03:36:52;;;;;;;11.55;3.60;;;;;;;-4.51;63.78;100601.16;4921426;29;20067;-77
2021/12/09 03:39:21;;;;;;;8.93;3.92;;;;;;;-4.49;64.48;100598.72;4893176;29;20051;-77
2021/12/09 03:41:52;;;;;;;10.18;4.25;;;;;;;-4.59;63.97;100587.09;4905146;29;20052;-78
2021/12/09 03:44:18;;;;;;;7.22;3.60;;;;;;;-4.47;63.93;100605.69;4921309;29;20048;-76
2021/12/09 03:46:44;;;;;;;8.23;3.92;;;;;;;-4.51;63.83;100600.28;4906119;29;20100;-77
2021/12/09 03:49:10;;;;;;;7.72;3.60;;;;;;;-4.52;64.15;100601.94;4888478;29;20044;-74
2021/12/09 03:51:37;;;;;;;10.05;4.45;;;;;;;-4.52;64.35;100607.03;4910408;29;20100;-76
2021/12/09 03:54:05;;;;;;;10.90;4.35;;;;;;;-4.47;64.32;100607.31;4904676;29;20074;-74
2021/12/09 03:56:32;;;;;;;8.82;4.30;;;;;;;-4.51;64.44;100605.34;4907380;29;20094;-77
2021/12/09 03:58:58;;;;;;;9.95;4.07;;;;;;;-4.52;63.86;100618.88;4906987;29;20072;-78
2021/12/09 04:01:24;;;;;;;8.02;4.07;;;;;;;-4.82;63.55;100583.06;4876685;29;20107;-76
2021/12/09 04:03:50;;;;;;;7.47;3.53;;;;;;;-4.70;63.93;100619.41;4909259;29;20051;-78
2021/12/09 04:06:16;;;;;;;12.02;4.30;;;;;;;-4.66;63.46;100625.59;4891662;29;20402;-76
2021/12/09 04:08:42;;;;;;;11.07;4.07;;;;;;;-4.67;63.73;100626.38;4890681;29;20040;-80
2021/12/09 04:11:10;;;;;;;9.05;4.68;;;;;;;-4.88;63.82;100596.25;4907902;29;20051;-77
2021/12/09 04:13:39;;;;;;;9.40;4.13;;;;;;;-4.73;63.99;100626.81;4911109;29;20406;-78
2021/12/09 04:16:07;;;;;;;8.80;3.95;;;;;;;-4.96;63.65;100600.78;4914696;29;20044;-76
2021/12/09 04:18:37;;;;;;;9.80;4.05;;;;;;;-4.76;63.35;100637.66;4924478;29;20055;-78
2021/12/09 04:21:04;;;;;;;8.27;3.78;;;;;;;-4.80;64.15;100633.16;4912304;29;20048;-78
2021/12/09 04:23:31;;;;;;;9.00;4.05;;;;;;;-4.78;64.57;100621.44;4912184;29;20096;-79
2021/12/09 04:25:58;;;;;;;10.40;4.38;;;;;;;-4.83;63.70;100617.72;4893472;29;20175;-77
2021/12/09 04:28:24;;;;;;;8.18;3.92;;;;;;;-4.86;63.59;100610.78;4908276;29;20047;-75
2021/12/09 04:30:50;;;;;;;9.35;3.78;;;;;;;-4.69;64.12;100629.69;4898716;29;20050;-75
2021/12/09 04:33:16;;;;;;;14.23;4.25;;;;;;;-4.66;64.29;100635.75;4910773;29;20060;-77
2021/12/09 04:35:42;;;;;;;9.65;4.20;;;;;;;-4.71;63.94;100615.09;4911673;29;20056;-75
2021/12/09 04:38:08;;;;;;;8.88;3.70;;;;;;;-4.72;64.09;100615.88;4910038;29;20044;-76
2021/12/09 04:40:34;;;;;;;12.13;4.53;;;;;;;-4.79;63.78;100623.91;4911710;29;20047;-76
2021/12/09 04:43:01;;;;;;;11.43;4.78;;;;;;;-4.76;63.90;100619.03;4895691;29;20048;-76
2021/12/09 04:45:30;;;;;;;11.75;4.60;;;;;;;-4.76;64.37;100614.81;4908904;29;20048;-77
2021/12/09 04:47:56;;;;;;;8.10;3.97;;;;;;;-4.81;64.04;100628.84;4880676;29;20494;-77
2021/12/09 04:50:23;;;;;;;11.30;4.78;;;;;;;-4.77;63.71;100629.97;4908121;29;20044;-77
2021/12/09 04:52:49;;;;;;;12.13;5.45;;;;;;;-4.75;63.51;100629.28;4910838;29;20071;-77
2021/12/09 04:55:15;;;;;;;10.88;4.40;;;;;;;-4.82;63.40;100629.63;4909169;29;20052;-76
2021/12/09 04:57:43;;;;;;;10.00;4.80;;;;;;;-5.02;64.37;100608.00;4911875;29;20044;-77
2021/12/09 05:00:14;;;;;;;9.75;4.47;;;;;;;-4.89;63.50;100622.41;4906759;29;20048;-77
2021/12/09 05:05:25;;;;;;;12.55;4.53;;;;;;;-5.06;63.75;100627.22;4910416;29;20044;-76
2021/12/09 05:07:51;;;;;;;12.27;5.28;;;;;;;-5.11;64.13;100633.66;4876325;29;20059;-75
2021/12/09 05:10:17;;;;;;;11.60;5.38;;;;;;;-5.28;64.17;100612.22;4920870;29;20088;-77
2021/12/09 05:12:43;;;;;;;14.63;5.75;;;;;;;-5.19;63.97;100653.47;4911239;29;20127;-78
2021/12/09 05:15:09;;;;;;;12.30;5.53;;;;;;;-5.51;64.20;100581.09;4905894;29;20557;-75
2021/12/09 05:17:35;;;;;;;15.45;5.65;;;;;;;-5.08;63.94;100645.69;4895575;29;20032;-75
2021/12/09 05:20:04;;;;;;;10.63;5.50;;;;;;;-5.36;63.35;100620.94;4918190;29;20134;-76
2021/12/09 05:22:31;;;;;;;14.38;5.90;;;;;;;-5.07;63.77;100657.59;4907233;29;20577;-77
2021/12/09 05:24:57;;;;;;;12.30;5.63;;;;;;;-5.04;64.07;100653.59;4906681;29;20044;-77
2021/12/09 05:27:23;;;;;;;12.45;5.85;;;;;;;-5.17;64.04;100625.63;4898251;29;20036;-77
2021/12/09 05:30:03;;;;;;;12.90;5.80;;;;;;;-4.95;63.36;100660.94;4907775;29;20043;-76
2021/12/09 05:32:29;;;;;;;14.85;6.32;;;;;;;-5.14;63.97;100636.00;4891299;29;20064;-77
2021/12/09 05:34:55;;;;;;;15.00;6.68;;;;;;;-4.94;64.04;100649.16;4910429;29;20514;-78
2021/12/09 05:37:24;;;;;;;14.50;5.53;;;;;;;-4.95;63.00;100649.94;4911373;29;20047;-79
2021/12/09 05:39:52;;;;;;;13.02;6.03;;;;;;;-4.97;62.94;100660.00;4908892;29;20048;-76
2021/12/09 05:42:21;;;;;;;14.23;6.00;;;;;;;-5.06;63.66;100641.59;4894372;29;20148;-79
2021/12/09 05:44:47;;;;;;;12.02;5.63;;;;;;;-5.00;63.16;100664.84;4908505;29;20072;-77
2021/12/09 05:47:13;;;;;;;16.40;6.20;;;;;;;-5.20;63.55;100656.78;4909786;29;20040;-79
2021/12/09 05:49:43;;;;;;;16.20;6.38;;;;;;;-5.04;63.36;100676.44;4909294;29;20047;-75
2021/12/09 05:52:10;;;;;;;16.10;6.78;;;;;;;-5.20;63.45;100660.94;4907975;29;20032;-76
2021/12/09 05:54:36;;;;;;;15.48;6.32;;;;;;;-5.21;63.69;100675.31;4910502;29;20044;-78
2021/12/09 05:57:03;;;;;;;13.80;6.25;;;;;;;-5.26;63.74;100679.19;4894722;29;20517;-76
2021/12/09 05:59:29;;;;;;;15.30;6.80;;;;;;;-5.37;62.71;100654.72;4911825;29;20044;-77
2021/12/09 06:01:55;;;;;;;14.88;6.70;;;;;;;-5.38;63.63;100656.38;4906120;29;20040;-80
2021/12/09 06:04:21;;;;;;;11.95;6.28;;;;;;;-5.42;63.64;100663.69;4895489;29;20068;-76
2021/12/09 06:06:48;;;;;;;15.55;7.03;;;;;;;-5.21;64.37;100685.47;4904880;29;20056;-78
2021/12/09 06:09:14;;;;;;;18.63;6.82;;;;;;;-5.15;64.13;100675.72;4892622;29;20099;-76
2021/12/09 06:11:41;;;;;;;15.10;6.85;;;;;;;-5.12;63.76;100658.94;4906934;29;20070;-78
2021/12/09 06:14:08;;;;;;;15.52;7.07;;;;;;;-5.00;63.81;100677.56;4909101;29;20055;-77
2021/12/09 06:16:34;;;;;;;17.02;7.35;;;;;;;-5.02;64.23;100666.41;4910150;29;20044;-77
2021/12/09 06:19:01;;;;;;;16.02;6.78;;;;;;;-4.99;63.24;100681.84;4909425;29;20091;-76
2021/12/09 06:21:28;;;;;;;16.15;7.22;;;;;;;-5.33;63.03;100632.22;4911147;29;20409;-78
2021/12/09 06:24:02;;;;;;;13.32;6.50;;;;;;;-5.07;63.21;100683.84;4908422;29;20123;-78
2021/12/09 06:26:31;;;;;;;17.25;6.60;;;;;;;-5.04;63.46;100690.81;4908850;29;20052;-76
2021/12/09 06:29:00;;;;;;;15.30;6.68;;;;;;;-5.05;63.53;100666.19;4898177;29;20044;-76
2021/12/09 06:31:27;;;;;;;18.30;7.40;;;;;;;-4.98;63.80;100668.38;4913673;29;20068;-77
2021/12/09 06:33:53;;;;;;;15.38;7.03;;;;;;;-4.85;63.53;100665.88;4894660;29;20060;-77
2021/12/09 06:36:19;;;;;;;15.68;6.60;;;;;;;-4.29;63.55;100689.84;4906339;29;20036;-77
2021/12/09 06:38:46;;;;;;;12.55;6.00;;;;;;;-3.19;63.19;100678.88;4907941;29;20131;-77
2021/12/09 06:41:12;;;;;;;12.13;6.10;;;;;;;-1.91;62.57;100660.69;4908567;29;20646;-76
2021/12/09 06:43:40;;;;;;;12.57;5.75;;;;;;;-0.63;62.54;100692.06;4905633;29;20052;-77
2021/12/09 06:46:12;;;;;;;11.48;5.70;;;;;;;0.53;62.06;100679.75;4911858;29;20490;-78
2021/12/09 06:48:42;;;;;;;12.02;6.32;;;;;;;0.98;59.67;100675.75;4910793;29;20042;-76
2021/12/09 06:51:09;;;;;;;11.48;6.60;;;;;;;1.64;60.38;100673.41;4911160;29;20462;-78
2021/12/09 06:53:37;;;;;;;11.63;6.40;;;;;;;2.26;59.17;100675.88;4908038;29;20111;-77
2021/12/09 06:56:04;;;;;;;10.15;5.80;;;;;;;2.89;58.28;100691.91;4909326;29;20517;-79
2021/12/09 06:58:34;;;;;;;10.27;5.22;;;;;;;3.30;57.19;100674.50;4895859;29;20100;-79
2021/12/09 07:01:01;;;;;;;10.65;5.28;;;;;;;3.76;57.28;100657.16;4915725;29;20059;-74
2021/12/09 07:03:28;;;;;;;9.45;5.22;;;;;;;4.14;55.69;100681.53;4919465;29;20023;-78
2021/12/09 07:05:54;;;;;;;11.13;5.35;;;;;;;4.51;55.42;100685.22;4924518;29;20051;-77
2021/12/09 07:08:21;;;;;;;11.90;5.60;;;;;;;4.75;53.68;100686.78;4923452;29;20050;-74
2021/12/09 07:10:51;;;;;;;12.80;6.50;;;;;;;4.92;53.97;100693.28;4907355;29;20080;-74
2021/12/09 07:13:21;;;;;;;11.05;6.38;;;;;;;5.36;54.72;100645.44;4899808;29;20059;-77
2021/12/09 07:16:00;;;;;;;12.02;6.72;;;;;;;6.21;53.39;100667.31;4878735;29;20209;-77
2021/12/09 07:18:26;;;;;;;12.95;6.38;;;;;;;6.28;52.45;100672.69;4909361;29;20487;-79
2021/12/09 07:20:56;;;;;;;12.82;6.82;;;;;;;6.30;51.32;100629.63;4908873;29;20051;-75
2021/12/09 07:23:28;;;;;;;12.75;6.10;;;;;;;7.03;50.26;100690.63;4904873;29;20047;-76
2021/12/09 07:25:56;;;;;;;10.98;6.40;;;;;;;7.23;49.50;100662.53;4912639;29;20040;-78
2021/12/09 07:28:22;;;;;;;14.27;6.70;;;;;;;7.90;50.69;100668.84;4910909;29;20044;-80
2021/12/09 07:30:50;;;;;;;12.63;6.85;;;;;;;8.58;48.44;100689.75;4901498;29;20110;-77
2021/12/09 07:33:17;;;;;;;8.95;6.10;;;;;;;8.88;46.89;100675.44;4908065;29;20139;-76
2021/12/09 07:35:43;;;;;;;11.98;5.88;;;;;;;9.31;47.10;100669.81;4909317;29;20091;-76
2021/12/09 07:38:09;;;;;;;10.05;6.13;;;;;;;9.60;46.98;100677.91;4907273;29;20048;-77
2021/12/09 07:40:36;;;;;;;10.35;6.32;;;;;;;9.70;45.48;100662.41;4907262;29;20390;-77
2021/12/09 07:43:02;;;;;;;8.40;5.43;;;;;;;10.16;44.47;100672.25;4904621;29;20410;-75
2021/12/09 07:45:32;;;;;;;9.85;5.72;;;;;;;10.45;43.53;100675.09;4909489;29;21116;-77
2021/12/09 07:47:59;;;;;;;8.90;5.75;;;;;;;10.89;43.40;100675.31;4887314;29;20075;-77
2021/12/09 07:50:31;;;;;;;9.40;6.15;;;;;;;11.03;42.51;100647.56;4907193;29;20052;-76
2021/12/09 07:53:06;;;;;;;10.38;6.53;;;;;;;11.73;41.67;100676.31;4906437;29;20051;-78
2021/12/09 07:55:37;;;;;;;9.90;6.22;;;;;;;11.92;40.24;100679.81;4879152;29;20587;-75
2021/12/09 07:58:03;;;;;;;10.33;6.97;;;;;;;11.84;39.84;100660.69;4896333;29;20382;-74
2021/12/09 08:00:32;;;;;;;9.40;6.30;;;;;;;12.15;40.38;100645.03;4909873;29;20823;-77
2021/12/09 08:03:00;;;;;;;9.30;6.28;;;;;;;12.48;38.64;100664.97;4907733;29;20056;-77
2021/12/09 08:05:28;;;;;;;8.90;6.07;;;;;;;12.65;38.52;100677.97;4907931;29;20075;-76
2021/12/09 08:07:54;;;;;;;9.60;6.40;;;;;;;12.95;37.18;100663.03;4892174;29;20107;-78
2021/12/09 08:10:22;;;;;;;10.65;6.20;;;;;;;13.16;37.48;100682.06;4905541;29;20066;-78
2021/12/09 08:12:49;;;;;;;8.25;6.13;;;;;;;13.50;36.17;100675.81;4906634;29;20059;-78
2021/12/09 08:15:16;;;;;;;9.93;6.40;;;;;;;13.37;33.90;100677.59;4907574;29;20044;-77
2021/12/09 08:20:13;;;;;;;9.13;6.20;;;;;;;13.55;34.79;100682.75;4907386;29;20047;-77
2021/12/09 08:22:40;;;;;;;8.95;5.88;;;;;;;13.83;34.24;100652.91;4873733;29;20133;-76
2021/12/09 08:25:13;;;;;;;7.28;5.72;;;;;;;14.23;33.15;100651.66;4878019;29;20122;-77
2021/12/09 08:27:46;;;;;;;8.95;5.47;;;;;;;14.58;32.02;100650.38;4909363;29;20044;-78
2021/12/09 08:30:20;;;;;;;7.78;5.07;;;;;;;15.26;31.49;100657.38;4907435;29;20044;-76
2021/12/09 08:32:48;;;;;;;7.90;5.38;;;;;;;15.39;31.37;100637.09;4910752;29;20059;-77
2021/12/09 08:35:15;;;;;;;7.72;5.13;;;;;;;15.58;30.74;100669.13;4886672;29;20417;-78
2021/12/09 08:37:45;;;;;;;8.32;5.53;;;;;;;15.84;30.11;100657.34;4908233;29;20048;-77
2021/12/09 08:40:20;;;;;;;7.93;5.60;;;;;;;16.55;29.79;100635.03;4922557;29;20046;-76
2021/12/09 08:42:49;;;;;;;9.00;5.22;;;;;;;16.68;29.25;100642.66;4910483;29;20514;-79
2021/12/09 08:45:17;;;;;;;9.00;5.57;;;;;;;16.92;28.88;100646.56;4905885;29;20056;-77
2021/12/09 08:47:47;;;;;;;7.25;4.93;;;;;;;17.14;28.34;100656.63;4906878;29;20044;-77
2021/12/09 08:50:17;;;;;;;6.53;4.90;;;;;;;17.34;28.09;100666.66;4908233;29;20048;-76
2021/12/09 08:52:47;;;;;;;7.22;5.35;;;;;;;17.26;27.42;100660.75;4919948;29;20371;-77
2021/12/09 08:55:13;;;;;;;7.78;5.55;;;;;;;16.55;27.52;100632.41;4926174;29;20604;-76
2021/12/09 08:57:39;;;;;;;6.78;5.20;;;;;;;16.83;27.38;100663.38;4924069;29;20044;-77
2021/12/09 09:00:11;;;;;;;8.18;5.32;;;;;;;17.09;27.94;100653.22;4920862;29;20047;-78
2021/12/09 09:02:40;;;;;;;7.55;5.32;;;;;;;17.40;27.58;100649.91;4915381;29;20690;-76
2021/12/09 09:05:19;;;;;;;6.32;5.10;;;;;;;17.58;27.56;100657.34;4916914;29;20135;-78
2021/12/09 09:07:49;;;;;;;7.38;6.03;;;;;;;17.86;26.45;100659.28;4927209;29;20048;-77
2021/12/09 09:10:19;;;;;;;7.35;5.50;;;;;;;18.01;26.77;100626.44;4914321;29;20111;-78
2021/12/09 09:12:46;;;;;;;8.15;6.05;;;;;;;18.09;26.50;100659.63;4888459;29;20047;-81
2021/12/09 09:15:16;;;;;;;8.65;6.32;;;;;;;17.41;25.13;100597.25;4910610;29;20094;-77
2021/12/09 09:17:42;;;;;;;9.82;6.40;;;;;;;17.15;25.93;100637.31;4907149;29;20044;-81
2021/12/09 09:20:14;;;;;;;8.85;6.40;;;;;;;16.31;25.52;100659.16;4911874;29;20058;-79
2021/12/09 09:22:46;;;;;;;10.25;6.90;;;;;;;15.58;25.88;100663.88;4912253;29;20509;-76
2021/12/09 09:25:22;;;;;;;10.20;6.70;;;;;;;14.63;26.23;100655.56;4911234;29;20103;-77
2021/12/09 09:27:50;;;;;;;10.77;6.93;;;;;;;14.20;25.96;100670.00;4927024;29;20100;-79
2021/12/09 09:30:22;;;;;;;9.38;6.53;;;;;;;12.98;26.73;100622.09;4911134;29;20044;-78
2021/12/09 09:33:46;;;;;;;14.75;8.57;;;;;;;12.02;26.86;100678.97;4904591;29;20061;-78
2021/12/09 09:36:46;;;;;;;14.00;9.25;;;;;;;10.97;27.78;100694.41;4849745;29;20076;-80
2021/12/09 09:39:18;;;;;;;8.55;5.60;;;;;;;9.73;27.94;100691.03;4764939;29;21240;-77
2021/12/09 09:41:58;;;;;;;9.68;5.97;;;;;;;8.87;29.43;100710.03;4809096;29;20480;-78
2021/12/09 09:44:46;;;;;;;9.02;6.20;;;;;;;9.15;30.39;100693.03;4857804;29;20041;-78
2021/12/09 09:47:40;;;;;;;10.02;5.80;;;;;;;8.67;29.33;100598.19;4912529;29;20100;-78
2021/12/09 09:50:09;;;;;;;9.18;5.57;;;;;;;8.99;30.28;100686.78;4910774;29;20070;-78
2021/12/09 09:52:55;;;;;;;11.30;6.38;;;;;;;8.97;29.23;100693.69;4908841;29;20044;-79
2021/12/09 09:55:29;;;;;;;10.20;6.25;;;;;;;8.54;30.34;100667.19;4907791;29;20136;-77
2021/12/09 09:58:27;;;;;;;14.73;6.80;;;;;;;8.97;30.51;100596.78;4908886;29;20103;-77
2021/12/09 10:01:19;;;;;;;11.68;6.35;;;;;;;9.26;29.41;100622.19;4882197;29;20052;-79
2021/12/09 10:03:59;;;;;;;13.48;7.15;;;;;;;7.52;28.95;100547.34;4896746;29;20051;-77
2021/12/09 10:06:25;;;;;;;13.55;7.25;;;;;;;6.52;30.10;100720.59;4912241;29;20506;-79
2021/12/09 10:09:05;;;;;;;15.27;7.85;;;;;;;5.58;31.94;100745.00;4925538;29;20067;-78
2021/12/09 10:11:32;;;;;;;14.20;7.30;;;;;;;4.78;32.01;100725.56;4912392;29;20051;-77
2021/12/09 10:17:27;;;;;;;14.05;6.82;;;;;;;3.56;33.49;100746.59;4925468;29;20044;-80
2021/12/09 10:19:55;;;;;;;14.98;6.68;;;;;;;3.13;34.29;100717.63;4907337;29;20040;-80
2021/12/09 10:22:39;;;;;;;12.73;6.93;;;;;;;2.05;34.63;100690.44;4910324;29;20463;-77
2021/12/09 10:25:24;;;;;;;12.15;6.53;;;;;;;1.82;35.75;100700.63;4895487;29;20067;-77
2021/12/09 10:28:00;;;;;;;11.85;6.45;;;;;;;1.70;36.18;100724.09;4906384;29;20040;-78
2021/12/09 10:30:27;;;;;;;10.68;6.68;;;;;;;0.74;36.16;100602.97;4923942;23;20646;-77
2021/12/09 10:33:03;;;;;;;13.45;6.57;;;;;;;0.87;36.97;100686.38;4906588;29;20051;-75
2021/12/09 10:36:11;;;;;;;13.82;6.30;;;;;;;0.03;37.23;100606.59;4891510;29;20041;-77
2021/12/09 10:38:47;;;;;;;12.55;6.18;;;;;;;0.33;37.64;100740.25;4910649;29;20047;-76
2021/12/09 10:41:52;;;;;;;14.15;6.47;;;;;;;-0.15;37.71;100768.66;4897615;29;20451;-76
2021/12/09 10:44:41;;;;;;;11.70;6.38;;;;;;;-0.98;38.81;100661.34;4891213;29;20626;-76
2021/12/09 10:47:14;;;;;;;18.25;6.82;;;;;;;-0.63;39.26;100750.88;4915829;29;20069;-76
2021/12/09 10:55:52;;;;;;;14.45;6.80;;;;;;;-1.43;40.08;100760.28;4912587;29;20048;-78
2021/12/09 10:59:05;;;;;;;13.73;6.55;;;;;;;-2.16;40.68;100661.84;4909970;29;20159;-77
2021/12/09 11:02:05;;;;;;;11.77;6.28;;;;;;;-1.65;40.00;100763.34;4883679;29;20042;-77
2021/12/09 11:05:07;;;;;;;13.68;7.45;;;;;;;-2.00;40.92;100802.25;4915691;29;20040;-80
2021/12/09 11:07:40;;;;;;;14.68;7.13;;;;;;;-2.41;40.86;100729.28;4911600;29;20103;-78
2021/12/09 11:10:48;;;;;;;15.32;7.57;;;;;;;-2.74;41.72;100676.44;4907220;29;20117;-79
2021/12/09 11:13:20;;;;;;;14.77;7.00;;;;;;;-2.22;41.66;100812.88;4893819;29;20063;-78
2021/12/09 11:15:53;;;;;;;11.50;6.15;;;;;;;-2.45;41.98;100778.38;4907687;29;20041;-75
2021/12/09 11:18:30;;;;;;;11.75;5.90;;;;;;;-2.70;41.93;100761.59;4914387;29;20051;-75
2021/12/09 11:21:09;;;;;;;12.75;6.65;;;;;;;-2.87;41.95;100783.50;4917541;29;20041;-78
2021/12/09 11:24:06;;;;;;;13.13;6.18;;;;;;;-3.61;41.95;100700.91;4917044;29;20078;-80
2021/12/09 11:29:26;;;;;;;;;;;;;;;-3.39;43.40;100804.06;4918620;29;20517;-75
2021/12/09 11:32:07;;;;;;;14.98;6.50;;;;;;;-3.38;43.51;100806.69;4931385;23;19931;-76
2021/12/09 11:35:26;;;;;;;11.20;5.93;;;;;;;-3.55;43.83;100799.66;4916982;29;20047;-78
2021/12/09 11:38:32;;;;;;;8.88;4.80;;;;;;;-3.82;43.00;100794.53;4927159;29;20048;-77
2021/12/09 11:41:02;;;;;;;9.18;4.80;;;;;;;-3.85;43.93;100804.50;4909805;29;20071;-78
2021/12/09 11:43:47;;;;;;;11.15;4.75;;;;;;;-4.52;43.80;100718.84;4924156;29;20102;-75
2021/12/09 11:46:27;;;;;;;10.05;4.63;;;;;;;-4.24;44.51;100792.69;4913257;29;20043;-78
2021/12/09 11:48:53;;;;;;;12.55;5.47;;;;;;;-4.22;44.67;100769.03;4907418;29;20044;-74
2021/12/09 11:51:20;;;;;;;9.68;5.07;;;;;;;-4.53;44.35;100752.63;4925686;29;20067;-78
2021/12/09 11:54:04;;;;;;;11.32;5.05;;;;;;;-4.39;44.18;100773.91;4920253;29;20091;-75
2021/12/09 11:56:41;;;;;;;10.60;5.17;;;;;;;-4.21;45.28;100845.44;4922566;29;20048;-77
2021/12/09 12:06:36;;;;;;;11.18;4.93;;;;;;;-5.69;45.10;100602.66;4908792;29;20303;-77
2021/12/09 12:11:25;;;;;;;10.68;5.53;;;;;;;-4.53;45.93;100861.91;4908119;29;20054;-78
2021/12/09 12:13:58;;;;;;;12.75;5.65;;;;;;;-4.73;44.91;100869.03;4912337;29;20043;-78
2021/12/09 12:32:06;;;;;;;12.35;5.05;;;;;;;-5.34;47.04;100870.63;4912607;29;20068;-78
2021/12/09 12:41:21;;;;;;;9.27;3.88;;;;;;;-6.09;47.11;100808.59;4890673;29;20071;-80